Time;durP1;ratioP1;P1;durP2;ratioP2;P2;SDS_P1;SDS_P2;PMS_P1;PMS_P2;Temp;Humidity;BMP_temperature;BMP_pressure;BME280_temperature;BME280_humidity;BME280_pressure;Samples;Min_cycle;Max_cycle;Signal;HPM_P1;HPM_P2
2022/02/08 00:02:25;;;;;;;3.13;0.50;;;5.90;99.90;;;;;;6104976;23;20084;-83
2022/02/08 00:04:51;;;;;;;3.45;0.70;;;5.90;99.90;;;;;;6079939;23;20033;-83
2022/02/08 00:07:16;;;;;;;8.30;0.70;;;5.90;99.90;;;;;;6129221;23;20017;-83
2022/02/08 00:09:42;;;;;;;2.63;0.55;;;5.90;99.90;;;;;;6103525;23;20024;-84
2022/02/08 00:12:08;;;;;;;4.43;0.50;;;5.90;99.90;;;;;;6104628;23;20014;-83
2022/02/08 00:14:34;;;;;;;7.80;0.70;;;6.00;99.90;;;;;;6104317;23;20092;-82
2022/02/08 00:17:00;;;;;;;5.57;0.70;;;5.90;99.90;;;;;;6104670;23;20036;-84
2022/02/08 00:19:25;;;;;;;9.20;1.00;;;5.90;99.90;;;;;;6104648;23;20343;-84
2022/02/08 00:21:51;;;;;;;9.85;0.85;;;6.00;99.90;;;;;;6154570;23;20012;-83
2022/02/08 00:24:17;;;;;;;6.10;1.13;;;6.00;99.90;;;;;;6120101;23;20024;-83
2022/02/08 00:26:42;;;;;;;7.28;0.90;;;6.00;99.90;;;;;;6128373;23;20066;-83
2022/02/08 00:29:08;;;;;;;7.07;0.98;;;6.00;99.90;;;;;;6128781;23;20362;-83
2022/02/08 00:31:34;;;;;;;11.90;1.50;;;6.00;99.90;;;;;;6152702;23;20009;-87
2022/02/08 00:33:59;;;;;;;9.07;1.48;;;6.00;99.90;;;;;;6129035;23;20056;-83
2022/02/08 00:36:25;;;;;;;11.57;1.67;;;6.00;99.90;;;;;;6153398;23;20068;-84
2022/02/08 00:38:52;;;;;;;9.50;1.63;;;5.90;99.90;;;;;;6152533;23;20312;-83
2022/02/08 00:41:18;;;;;;;7.20;0.93;;;5.90;99.90;;;;;;6128946;23;20013;-84
2022/02/08 00:46:29;;;;;;;7.78;1.38;;;5.80;99.90;;;;;;6153159;23;20368;-84
2022/02/08 00:49:00;;;;;;;6.32;1.13;;;5.80;99.90;;;;;;6128580;23;20529;-84
2022/02/08 00:51:28;;;;;;;5.25;0.98;;;5.80;99.90;;;;;;6128452;23;20079;-84
2022/02/08 00:53:54;;;;;;;5.13;0.77;;;5.80;99.90;;;;;;6152803;23;20437;-84
2022/02/08 00:56:20;;;;;;;5.38;0.80;;;5.80;99.90;;;;;;6128562;23;20044;-85
2022/02/08 00:58:46;;;;;;;7.28;1.30;;;5.80;99.90;;;;;;6128636;23;20501;-85
2022/02/08 01:01:12;;;;;;;7.25;1.33;;;5.90;99.90;;;;;;6153331;23;20068;-84
2022/02/08 01:03:38;;;;;;;11.00;2.00;;;5.90;99.90;;;;;;6128129;23;20041;-84
2022/02/08 01:06:08;;;;;;;10.02;2.47;;;5.90;99.90;;;;;;6128861;23;20132;-83
2022/02/08 01:08:36;;;;;;;;;;;5.90;99.90;;;;;;6127715;23;20010;-83
2022/02/08 01:11:04;;;;;;;6.45;1.13;;;5.90;99.90;;;;;;6128705;23;19912;-84
2022/02/08 01:13:30;;;;;;;3.70;1.30;;;5.90;99.90;;;;;;6152736;23;20032;-83
2022/02/08 01:15:56;;;;;;;6.63;1.50;;;6.00;99.90;;;;;;6128488;23;20009;-85
2022/02/08 01:18:22;;;;;;;6.35;1.13;;;6.00;99.90;;;;;;6128362;23;20076;-84
2022/02/08 01:20:49;;;;;;;7.97;1.35;;;6.00;99.90;;;;;;6127993;23;20009;-84
2022/02/08 01:23:15;;;;;;;8.43;2.30;;;6.10;99.90;;;;;;6127275;23;20095;-85
2022/02/08 01:25:50;;;;;;;13.93;3.20;;;6.10;99.90;;;;;;6127854;23;20418;-84
2022/02/08 01:28:29;;;;;;;15.10;3.97;;;6.10;99.90;;;;;;6128783;23;20458;-83
2022/02/08 01:39:00;;;;;;;;;;;6.20;99.90;;;;;;6153163;23;20009;-85
2022/02/08 01:44:33;;;;;;;8.40;3.67;;;6.20;99.90;;;;;;6152964;23;20021;-86
2022/02/08 01:49:32;;;;;;;10.77;4.93;;;6.20;99.90;;;;;;6152929;23;20461;-85
2022/02/08 01:52:01;;;;;;;11.98;6.57;;;6.20;99.90;;;;;;6128476;23;20009;-85
2022/02/08 01:54:28;;;;;;;7.38;4.10;;;6.20;99.90;;;;;;6128342;23;20066;-85
2022/02/08 01:56:54;;;;;;;13.02;4.72;;;6.20;99.90;;;;;;6153476;23;20013;-84
2022/02/08 01:59:21;;;;;;;12.32;5.65;;;6.20;99.90;;;;;;6152644;23;20002;-84
2022/02/08 02:01:48;;;;;;;15.30;6.10;;;6.20;99.90;;;;;;6128378;23;20040;-84
2022/02/08 02:04:14;;;;;;;13.40;5.65;;;6.20;99.90;;;;;;6127890;23;20013;-84
2022/02/08 02:06:43;;;;;;;18.77;7.18;;;6.20;99.90;;;;;;6128425;23;20029;-84
2022/02/08 02:09:14;;;;;;;10.23;5.70;;;6.30;99.90;;;;;;6129221;23;20014;-85
2022/02/08 02:11:40;;;;;;;8.07;4.13;;;6.30;99.90;;;;;;6127525;23;20077;-84
2022/02/08 02:14:06;;;;;;;8.68;4.68;;;6.30;99.90;;;;;;6128485;23;20338;-85
2022/02/08 02:18:57;;;;;;;8.70;4.35;;;6.30;99.90;;;;;;6152746;23;20009;-87
2022/02/08 02:21:29;;;;;;;9.60;4.18;;;6.30;99.90;;;;;;6128583;23;20485;-85
2022/02/08 02:23:55;;;;;;;10.45;5.53;;;6.40;99.90;;;;;;6127070;23;20365;-88
2022/02/08 02:26:24;;;;;;;9.00;5.35;;;6.40;99.90;;;;;;6128175;23;20006;-85
2022/02/08 02:28:50;;;;;;;14.70;9.13;;;6.40;99.90;;;;;;6152022;23;20013;-83
2022/02/08 02:31:19;;;;;;;18.35;9.90;;;6.50;99.90;;;;;;6127912;23;20331;-85
2022/02/08 02:33:45;;;;;;;19.40;10.48;;;6.40;99.90;;;;;;6127309;23;20013;-84
2022/02/08 02:36:13;;;;;;;17.63;9.98;;;6.50;99.90;;;;;;6127228;23;20013;-84
2022/02/08 02:38:39;;;;;;;22.00;11.90;;;6.50;99.90;;;;;;6127048;23;20013;-84
2022/02/08 02:41:05;;;;;;;19.13;11.90;;;6.60;99.90;;;;;;6127360;23;20006;-85
2022/02/08 02:43:31;;;;;;;18.20;11.55;;;6.60;99.90;;;;;;6127373;23;20080;-84
2022/02/08 02:46:00;;;;;;;20.15;11.65;;;6.70;99.90;;;;;;6127932;23;20009;-84
2022/02/08 02:48:27;;;;;;;24.23;13.60;;;6.70;99.90;;;;;;6127343;23;20020;-84
2022/02/08 02:50:55;;;;;;;20.83;12.93;;;6.80;99.90;;;;;;6128493;23;20045;-86
2022/02/08 02:53:30;;;;;;;29.77;16.75;;;6.80;99.90;;;;;;6129048;23;20442;-84
2022/02/08 02:55:58;;;;;;;26.50;16.75;;;6.90;99.90;;;;;;6128256;23;20036;-84
2022/02/08 02:58:29;;;;;;;26.30;16.08;;;6.90;99.90;;;;;;6128129;23;20196;-83
2022/02/08 03:01:16;;;;;;;25.60;16.77;;;6.90;99.90;;;;;;6127680;23;20382;-85
2022/02/08 03:03:59;;;;;;;21.00;12.40;;;6.90;99.90;;;;;;6127346;23;20025;-83
2022/02/08 03:20:24;;;;;;;24.95;16.45;;;7.30;99.90;;;;;;6068489;23;20031;-84
2022/02/08 03:22:54;;;;;;;25.73;16.35;;;7.20;99.90;;;;;;6067601;23;20022;-86
2022/02/08 03:25:21;;;;;;;25.05;16.42;;;7.20;99.90;;;;;;6068123;23;20073;-83
2022/02/08 03:27:48;;;;;;;28.15;17.45;;;7.30;99.90;;;;;;6066979;23;20062;-84
2022/02/08 03:30:13;;;;;;;34.95;20.77;;;7.30;99.90;;;;;;6067951;23;20006;-84
2022/02/08 03:32:40;;;;;;;25.88;18.10;;;7.30;99.90;;;;;;6067357;23;20431;-87
2022/02/08 03:35:08;;;;;;;24.00;17.27;;;7.30;99.90;;;;;;6068051;23;20014;-84
2022/02/08 03:37:34;;;;;;;29.65;18.55;;;7.30;99.90;;;;;;6067700;23;20007;-84
2022/02/08 03:40:13;;;;;;;27.45;17.52;;;7.40;99.90;;;;;;6067686;23;20015;-85
2022/02/08 03:42:57;;;;;;;28.15;17.58;;;7.40;99.90;;;;;;6067702;23;20495;-85
2022/02/08 03:45:23;;;;;;;24.90;16.52;;;7.40;99.90;;;;;;6047073;23;20026;-83
2022/02/08 03:47:48;;;;;;;29.80;19.40;;;7.40;99.90;;;;;;6085909;23;20073;-85
2022/02/08 03:50:14;;;;;;;30.88;20.13;;;7.50;99.90;;;;;;6126242;23;20084;-83
2022/02/08 03:52:41;;;;;;;27.05;18.30;;;7.50;99.90;;;;;;6127562;23;20041;-85
2022/02/08 03:55:07;;;;;;;33.40;21.70;;;7.50;99.90;;;;;;6127383;23;20013;-83
2022/02/08 03:57:33;;;;;;;28.30;17.85;;;7.60;99.90;;;;;;6126907;23;20014;-83
2022/02/08 04:00:04;;;;;;;31.55;20.83;;;7.60;99.90;;;;;;6128095;23;20010;-83
2022/02/08 04:02:45;;;;;;;29.58;18.10;;;7.60;99.90;;;;;;6150426;23;20010;-84
2022/02/08 04:05:19;;;;;;;32.88;21.50;;;7.60;99.90;;;;;;6153257;23;20017;-83
2022/02/08 04:07:58;;;;;;;26.98;16.50;;;7.70;99.90;;;;;;6151693;23;20028;-83
2022/02/08 04:10:26;;;;;;;28.25;17.98;;;7.70;99.90;;;;;;6151949;23;20097;-83
2022/02/08 04:31:56;;;;;;;29.02;17.98;;;8.00;99.90;;;;;;6154394;23;20449;-83
2022/02/08 04:34:28;;;;;;;30.30;17.40;;;7.90;99.90;;;;;;6154053;23;20347;-84
2022/02/08 04:37:41;;;;;;;22.75;13.63;;;8.00;99.90;;;;;;6129318;23;20097;-83
2022/02/08 04:43:04;;;;;;;24.00;16.13;;;7.90;99.90;;;;;;6154170;23;20045;-83
2022/02/08 04:50:24;;;;;;;23.52;14.60;;;8.00;99.90;;;;;;6154884;23;20017;-83
2022/02/08 04:52:52;;;;;;;27.15;15.65;;;8.00;99.90;;;;;;6129047;23;20025;-84
2022/02/08 04:57:50;;;;;;;28.23;17.92;;;8.00;99.90;;;;;;6154316;23;20017;-83
2022/02/08 05:34:11;;;;;;;16.77;11.52;;;7.90;99.90;;;;;;6153464;23;20565;-85
2022/02/08 05:35:31;;;;;;;20.08;12.43;;;7.90;99.90;;;;;;6154427;23;20075;-87
2022/02/08 05:43:40;;;;;;;17.50;11.63;;;7.90;99.90;;;;;;6151985;23;20030;-88
2022/02/08 05:48:39;;;;;;;16.80;11.98;;;7.90;99.90;;;;;;6154186;23;20457;-89
2022/02/08 05:51:13;;;;;;;16.52;11.85;;;7.90;99.90;;;;;;6128586;23;20014;-88
2022/02/08 05:53:46;;;;;;;17.05;11.45;;;7.90;99.90;;;;;;6128076;23;20338;-90
2022/02/08 05:56:15;;;;;;;15.25;9.35;;;8.00;99.90;;;;;;6129239;23;20018;-88
2022/02/08 05:58:44;;;;;;;15.85;9.98;;;8.00;99.90;;;;;;6127528;23;20041;-88
2022/02/08 06:01:10;;;;;;;20.55;12.80;;;8.00;99.90;;;;;;6128629;23;20016;-88
2022/02/08 06:04:00;;;;;;;15.15;10.82;;;8.00;99.90;;;;;;6152568;23;20028;-90
2022/02/08 06:06:27;;;;;;;15.57;9.18;;;8.00;99.90;;;;;;6103939;23;20017;-87
2022/02/08 06:08:53;;;;;;;26.33;13.65;;;8.00;99.90;;;;;;6104160;23;20036;-91
2022/02/08 06:11:19;;;;;;;19.27;11.70;;;8.10;99.90;;;;;;6104060;23;20006;-87
2022/02/08 06:13:50;;;;;;;14.50;9.23;;;8.10;99.90;;;;;;6127088;23;20005;-87
2022/02/08 06:16:18;;;;;;;15.95;10.27;;;8.00;99.90;;;;;;6103456;23;20009;-88
2022/02/08 06:18:44;;;;;;;16.42;10.27;;;8.00;99.90;;;;;;6153955;23;20009;-88
2022/02/08 06:21:10;;;;;;;19.10;11.05;;;8.00;99.90;;;;;;6103370;23;20016;-87
2022/02/08 06:23:36;;;;;;;17.83;11.23;;;8.00;99.90;;;;;;6111265;23;20342;-87
2022/02/08 06:26:02;;;;;;;14.65;9.68;;;8.00;99.90;;;;;;6152349;23;20006;-86
2022/02/08 06:28:28;;;;;;;12.27;8.15;;;8.10;99.90;;;;;;6127472;23;20338;-87
2022/02/08 06:30:53;;;;;;;17.67;12.00;;;8.00;99.90;;;;;;6128260;23;20017;-89
2022/02/08 06:33:19;;;;;;;16.55;11.98;;;8.00;99.90;;;;;;6128137;23;20012;-89
2022/02/08 06:35:52;;;;;;;15.57;9.93;;;8.00;99.90;;;;;;6156102;23;20010;-90
2022/02/08 06:38:19;;;;;;;11.60;7.78;;;8.00;99.90;;;;;;6117347;23;20017;-87
2022/02/08 06:40:49;;;;;;;16.00;11.18;;;8.00;99.90;;;;;;6124206;23;20014;-91
2022/02/08 06:43:15;;;;;;;15.80;10.70;;;8.00;99.90;;;;;;6102900;23;20121;-90
2022/02/08 06:45:41;;;;;;;17.88;12.52;;;7.90;99.90;;;;;;6126674;23;20074;-87
2022/02/08 06:48:08;;;;;;;14.93;11.55;;;7.90;99.90;;;;;;6151819;23;20013;-87
2022/02/08 06:50:34;;;;;;;15.40;10.70;;;7.80;99.90;;;;;;6126706;23;20084;-87
2022/02/08 06:52:59;;;;;;;21.52;12.45;;;7.80;99.90;;;;;;6126789;23;20025;-90
2022/02/08 06:55:27;;;;;;;15.57;11.20;;;7.80;99.90;;;;;;6126497;23;20386;-89
2022/02/08 06:58:05;;;;;;;15.60;10.77;;;7.70;99.90;;;;;;6127221;23;20036;-88
2022/02/08 07:00:36;;;;;;;17.83;10.82;;;7.70;99.90;;;;;;6127036;23;20086;-89
2022/02/08 07:03:06;;;;;;;21.27;12.13;;;7.70;99.90;;;;;;6125742;23;20017;-89
2022/02/08 07:05:32;;;;;;;13.65;9.93;;;7.70;99.90;;;;;;6126034;23;20334;-89
2022/02/08 07:07:57;;;;;;;11.32;8.77;;;7.60;99.90;;;;;;6126646;23;20014;-91
2022/02/08 07:10:23;;;;;;;14.55;8.02;;;7.50;99.90;;;;;;6150998;23;20009;-88
2022/02/08 07:12:50;;;;;;;11.65;7.78;;;7.50;99.90;;;;;;6125816;23;20058;-89
2022/02/08 07:15:17;;;;;;;9.23;6.00;;;7.50;99.90;;;;;;6150966;23;20513;-89
2022/02/08 07:17:43;;;;;;;9.35;6.38;;;7.40;99.90;;;;;;6126206;23;20427;-88
2022/02/08 07:20:10;;;;;;;12.73;8.75;;;7.50;99.90;;;;;;6151120;23;20016;-87
2022/02/08 07:22:36;;;;;;;9.95;6.72;;;7.50;99.90;;;;;;6125595;23;20044;-89
2022/02/08 07:25:02;;;;;;;9.82;5.85;;;7.50;99.90;;;;;;6126414;23;20068;-89
2022/02/08 07:27:28;;;;;;;10.77;7.40;;;7.50;99.90;;;;;;6101278;23;20509;-88
2022/02/08 07:29:55;;;;;;;12.60;7.93;;;7.50;99.90;;;;;;6101649;23;20009;-89
2022/02/08 07:32:29;;;;;;;11.32;7.30;;;7.50;99.90;;;;;;6101400;23;20473;-88
2022/02/08 07:35:46;;;;;;;10.77;7.70;;;7.60;99.90;;;;;;6102113;23;20059;-89
2022/02/08 07:37:56;;;;;;;8.93;5.90;;;7.60;99.90;;;;;;6112838;23;20001;-88
2022/02/08 07:41:35;;;;;;;8.45;5.95;;;7.70;99.90;;;;;;6101176;23;20032;-87
2022/02/08 07:43:18;;;;;;;14.77;8.63;;;7.80;99.90;;;;;;6125838;23;20442;-90
2022/02/08 07:45:59;;;;;;;12.48;8.20;;;7.90;99.90;;;;;;6105919;23;20016;-88
2022/02/08 07:48:27;;;;;;;16.30;9.48;;;7.90;99.90;;;;;;6102663;23;20373;-89
2022/02/08 07:50:53;;;;;;;11.63;7.35;;;7.90;99.90;;;;;;6124078;23;20021;-87
2022/02/08 07:53:20;;;;;;;14.32;8.88;;;8.00;99.90;;;;;;6096961;23;20084;-88
2022/02/08 07:55:46;;;;;;;12.00;8.07;;;8.00;99.90;;;;;;6102440;23;20040;-89
2022/02/08 07:58:12;;;;;;;9.75;6.57;;;8.00;99.90;;;;;;6103769;23;20077;-90
2022/02/08 08:00:38;;;;;;;11.85;6.60;;;8.00;99.90;;;;;;6102842;23;20010;-90
2022/02/08 08:03:08;;;;;;;13.07;8.30;;;7.90;99.90;;;;;;6103555;23;20013;-88
2022/02/08 08:05:33;;;;;;;10.95;7.18;;;8.00;99.90;;;;;;6103186;23;20447;-89
2022/02/08 08:07:59;;;;;;;10.77;6.22;;;8.00;99.90;;;;;;6101938;23;20040;-88
2022/02/08 08:10:30;;;;;;;10.40;7.07;;;8.00;99.90;;;;;;6127409;23;20097;-90
2022/02/08 08:12:57;;;;;;;10.15;6.07;;;8.10;99.90;;;;;;6103503;23;20010;-88
2022/02/08 08:15:37;;;;;;;11.00;6.10;;;8.10;99.90;;;;;;6127888;23;20017;-89
2022/02/08 08:19:08;;;;;;;9.13;5.72;;;8.10;99.90;;;;;;6102608;23;20014;-89
2022/02/08 08:20:58;;;;;;;5.95;3.70;;;8.10;99.90;;;;;;6107707;23;20021;-87
2022/02/08 08:23:24;;;;;;;9.90;6.32;;;8.10;99.90;;;;;;6132574;23;20346;-89
2022/02/08 08:25:50;;;;;;;13.45;6.82;;;8.20;99.90;;;;;;6126167;23;20009;-90
2022/02/08 08:28:19;;;;;;;9.68;5.68;;;8.20;99.90;;;;;;6127178;23;20024;-88
2022/02/08 08:30:45;;;;;;;12.68;7.10;;;8.30;99.90;;;;;;6126883;23;20343;-89
2022/02/08 08:33:10;;;;;;;15.82;9.85;;;8.30;99.90;;;;;;6128116;23;20002;-89
2022/02/08 08:35:38;;;;;;;16.00;9.82;;;8.40;99.90;;;;;;6126817;23;20013;-89
2022/02/08 08:38:06;;;;;;;12.07;7.45;;;8.50;99.90;;;;;;6130861;23;20393;-88
2022/02/08 08:40:49;;;;;;;10.48;6.43;;;8.50;99.90;;;;;;6103032;23;20025;-91
2022/02/08 08:53:25;;;;;;;11.88;6.47;;;8.80;99.90;;;;;;6153711;23;20018;-89
2022/02/08 08:55:52;;;;;;;13.85;6.80;;;8.90;99.90;;;;;;6152546;23;20037;-89
2022/02/08 08:58:20;;;;;;;10.45;4.35;;;8.90;99.90;;;;;;6151148;23;20021;-94
2022/02/08 09:00:45;;;;;;;10.73;6.15;;;9.00;99.90;;;;;;6153577;23;20056;-88
2022/02/08 09:03:12;;;;;;;11.20;5.13;;;9.10;99.90;;;;;;6126490;23;20398;-89
2022/02/08 09:05:37;;;;;;;10.52;5.65;;;9.20;99.90;;;;;;6152345;23;20088;-91
2022/02/08 09:08:04;;;;;;;11.40;6.00;;;9.20;99.90;;;;;;6151989;23;20422;-90
2022/02/08 09:10:40;;;;;;;8.43;4.72;;;9.20;99.90;;;;;;6126563;23;20040;-90
2022/02/08 09:15:48;;;;;;;13.93;5.45;;;9.40;99.90;;;;;;6149979;23;20017;-94
2022/02/08 09:18:35;;;;;;;11.57;4.00;;;9.40;99.90;;;;;;6126946;23;20461;-88
2022/02/08 09:28:55;;;;;;;8.18;4.38;;;9.50;99.90;;;;;;6150920;23;20113;-87
2022/02/08 09:31:21;;;;;;;8.75;3.70;;;9.70;99.90;;;;;;6152306;23;20005;-92
2022/02/08 09:33:48;;;;;;;9.02;3.00;;;9.90;99.90;;;;;;6126715;23;20304;-88
2022/02/08 09:36:15;;;;;;;8.77;2.83;;;9.90;99.90;;;;;;6127267;23;20366;-92
2022/02/08 09:38:41;;;;;;;7.15;2.85;;;10.00;99.90;;;;;;6127159;23;20088;-87
2022/02/08 09:41:09;;;;;;;8.05;2.28;;;10.00;99.90;;;;;;6127188;23;20040;-86
2022/02/08 09:43:37;;;;;;;7.25;1.90;;;9.90;99.90;;;;;;6126297;23;20044;-89
2022/02/08 09:46:05;;;;;;;12.20;1.90;;;10.00;99.90;;;;;;6126755;23;20005;-86
2022/02/08 09:50:59;;;;;;;6.07;1.58;;;10.20;99.90;;;;;;6150749;23;20316;-89
2022/02/08 09:53:31;;;;;;;9.73;1.83;;;10.10;99.90;;;;;;6109406;23;20214;-89
2022/02/08 09:56:00;;;;;;;7.13;1.60;;;10.10;99.90;;;;;;6127345;23;20011;-87
2022/02/08 09:58:32;;;;;;;4.68;0.80;;;10.10;99.90;;;;;;6151135;23;20530;-92
2022/02/08 10:01:11;;;;;;;3.33;0.60;;;10.40;99.90;;;;;;6126247;23;20006;-89
2022/02/08 10:03:53;;;;;;;5.80;0.80;;;10.40;99.90;;;;;;6125151;23;20026;-89
2022/02/08 10:06:20;;;;;;;6.50;1.00;;;10.30;99.90;;;;;;6151267;23;20465;-90
2022/02/08 10:08:57;;;;;;;8.10;0.90;;;10.30;99.90;;;;;;6125423;23;20013;-89
2022/02/08 10:11:28;;;;;;;5.97;0.77;;;10.40;99.90;;;;;;6126662;23;20331;-87
2022/02/08 10:14:18;;;;;;;4.82;0.70;;;10.40;99.90;;;;;;6150901;23;20010;-89
2022/02/08 10:22:38;;;;;;;6.05;0.52;;;10.60;99.90;;;;;;6150536;23;20063;-91
2022/02/08 10:25:08;;;;;;;7.63;1.00;;;10.60;99.90;;;;;;6102429;23;20017;-88
2022/02/08 10:27:38;;;;;;;3.63;0.45;;;10.60;99.90;;;;;;6076998;23;20398;-90
2022/02/08 10:38:45;;;;;;;2.72;0.30;;;10.70;99.90;;;;;;6126097;23;20061;-88
2022/02/08 10:41:24;;;;;;;7.25;0.40;;;10.70;99.90;;;;;;6102135;23;20405;-90
2022/02/08 10:44:05;;;;;;;6.13;0.43;;;10.60;99.90;;;;;;6118870;23;20076;-86
2022/02/08 10:46:32;;;;;;;5.15;0.30;;;10.60;99.90;;;;;;6101678;23;20713;-87
2022/02/08 10:49:10;;;;;;;3.05;0.30;;;10.70;99.90;;;;;;6100658;23;20072;-86
2022/02/08 10:51:45;;;;;;;5.65;0.40;;;10.60;99.90;;;;;;6097221;23;20017;-87
2022/02/08 10:54:31;;;;;;;5.20;0.40;;;10.60;99.90;;;;;;6101462;23;20005;-89
2022/02/08 10:57:04;;;;;;;4.35;0.52;;;10.60;99.90;;;;;;6151956;23;20014;-88
2022/02/08 10:59:36;;;;;;;4.47;0.30;;;10.60;99.90;;;;;;6100701;23;20028;-87
2022/02/08 11:02:11;;;;;;;6.72;0.45;;;10.60;99.90;;;;;;6125420;23;20040;-85
2022/02/08 11:04:49;;;;;;;6.82;0.50;;;10.60;99.90;;;;;;6125822;23;20014;-88
2022/02/08 11:07:23;;;;;;;4.28;0.40;;;10.60;99.90;;;;;;6101372;23;20152;-89
2022/02/08 11:10:09;;;;;;;4.07;0.30;;;10.60;99.90;;;;;;6124655;23;20022;-88
2022/02/08 11:12:57;;;;;;;5.05;0.40;;;10.60;99.90;;;;;;6125860;23;20331;-88
2022/02/08 11:15:46;;;;;;;6.22;0.40;;;10.60;99.90;;;;;;6125546;23;20024;-84
2022/02/08 11:21:41;;;;;;;7.68;0.50;;;10.70;99.90;;;;;;6126109;23;20017;-88
2022/02/08 11:26:29;;;;;;;7.72;0.38;;;10.70;99.90;;;;;;6150800;23;20009;-87
2022/02/08 11:28:56;;;;;;;4.00;0.30;;;10.70;99.90;;;;;;6126963;23;20403;-87
2022/02/08 11:31:29;;;;;;;5.72;0.28;;;10.80;99.90;;;;;;6152036;23;20028;-88
2022/02/08 11:39:57;;;;;;;2.95;0.20;;;10.90;99.90;;;;;;6151963;23;20044;-88
2022/02/08 11:43:07;;;;;;;2.72;0.20;;;10.90;99.90;;;;;;6152386;23;20052;-85
2022/02/08 11:45:41;;;;;;;3.35;0.50;;;10.90;99.90;;;;;;6151539;23;20024;-87
2022/02/08 11:48:29;;;;;;;6.30;0.28;;;10.90;99.90;;;;;;6152487;23;20001;-86
2022/02/08 11:51:33;;;;;;;7.68;0.75;;;10.90;99.90;;;;;;6127062;23;20010;-84
2022/02/08 11:54:24;;;;;;;4.95;0.40;;;11.00;99.90;;;;;;6140074;23;20056;-88
2022/02/08 12:05:43;;;;;;;2.95;0.30;;;11.20;99.90;;;;;;6153321;23;20020;-93
2022/02/08 12:07:36;;;;;;;5.70;0.40;;;11.20;99.90;;;;;;6145782;23;20013;-88
2022/02/08 12:10:24;;;;;;;5.93;0.30;;;11.20;99.90;;;;;;6151648;23;20058;-87
2022/02/08 12:32:56;;;;;;;5.07;0.30;;;11.30;99.90;;;;;;6117751;23;20092;-87
2022/02/08 13:05:33;;;;;;;8.63;0.38;;;11.20;99.90;;;;;;6146134;23;20017;-87
2022/02/08 13:19:43;;;;;;;4.88;0.38;;;11.20;99.90;;;;;;6151386;23;20016;-87
2022/02/08 13:32:12;;;;;;;6.32;0.43;;;11.30;99.90;;;;;;6151894;23;20040;-89
2022/02/08 14:08:58;;;;;;;4.55;0.30;;;11.10;99.90;;;;;;6126119;23;20423;-89
2022/02/08 14:19:39;;;;;;;7.03;0.30;;;11.00;99.90;;;;;;6038394;23;20090;-88
2022/02/08 14:22:31;;;;;;;3.85;0.25;;;11.00;99.90;;;;;;6014357;23;20487;-91
2022/02/08 14:30:46;;;;;;;5.45;0.40;;;11.00;99.90;;;;;;6033506;23;20086;-89
2022/02/08 14:33:31;;;;;;;4.60;0.40;;;11.00;99.90;;;;;;5986687;23;20007;-87
2022/02/08 14:57:37;;;;;;;4.70;0.20;;;11.00;99.90;;;;;;6096137;23;20045;-87
2022/02/08 15:08:25;;;;;;;7.53;0.30;;;11.00;99.90;;;;;;6121337;23;20010;-86
2022/02/08 15:10:56;;;;;;;2.55;0.28;;;11.00;99.90;;;;;;6073140;23;20092;-92
2022/02/08 15:13:26;;;;;;;3.33;0.20;;;11.00;99.90;;;;;;6097084;23;20509;-87
2022/02/08 15:18:37;;;;;;;4.95;0.30;;;10.90;99.90;;;;;;6093444;23;20014;-86
2022/02/08 15:21:05;;;;;;;4.43;0.45;;;10.90;99.90;;;;;;6071659;23;20339;-87
2022/02/08 15:23:30;;;;;;;4.57;0.30;;;10.90;99.90;;;;;;6090193;23;20027;-88
2022/02/08 15:25:58;;;;;;;4.80;0.22;;;10.80;99.90;;;;;;6149975;23;20092;-89
2022/02/08 15:28:26;;;;;;;3.92;0.20;;;10.80;99.90;;;;;;6125948;23;20010;-88
2022/02/08 15:30:53;;;;;;;4.28;0.40;;;10.80;99.90;;;;;;6125919;23;20013;-92
2022/02/08 15:33:19;;;;;;;4.78;0.47;;;10.80;99.90;;;;;;6150691;23;20084;-93
2022/02/08 15:35:45;;;;;;;6.53;0.45;;;10.80;99.90;;;;;;6126284;23;20438;-89
2022/02/08 15:38:11;;;;;;;2.50;0.20;;;10.80;99.90;;;;;;6149862;23;20040;-91
2022/02/08 15:40:36;;;;;;;8.48;0.40;;;10.70;99.90;;;;;;6125853;23;20037;-88
2022/02/08 15:43:02;;;;;;;3.65;0.30;;;10.70;99.90;;;;;;6150436;23;20021;-90
2022/02/08 15:45:33;;;;;;;4.65;0.20;;;10.70;99.90;;;;;;6150424;23;20005;-89
2022/02/08 15:48:00;;;;;;;2.17;0.20;;;10.70;99.90;;;;;;6124807;23;20005;-88
2022/02/08 15:50:54;;;;;;;4.82;0.30;;;10.70;99.90;;;;;;6125220;23;20096;-87
2022/02/08 16:00:06;;;;;;;5.43;0.30;;;10.60;99.90;;;;;;6149971;23;20014;-87
2022/02/08 16:01:26;;;;;;;1.67;0.22;;;10.60;99.90;;;;;;6149794;23;20009;-89
2022/02/08 16:06:58;;;;;;;3.08;0.30;;;10.60;99.90;;;;;;6149945;23;20071;-90
2022/02/08 16:09:32;;;;;;;4.03;0.20;;;10.60;99.90;;;;;;6125896;23;20013;-87
2022/02/08 16:12:22;;;;;;;3.45;0.40;;;10.60;99.90;;;;;;6126206;23;20005;-91
2022/02/08 16:20:35;;;;;;;3.55;0.30;;;10.50;99.90;;;;;;6152817;23;20020;-93
2022/02/08 16:23:38;;;;;;;4.25;0.20;;;10.60;99.90;;;;;;6127605;23;20423;-91
2022/02/08 16:26:21;;;;;;;3.90;0.20;;;10.50;99.90;;;;;;6151718;23;20018;-94
2022/02/08 16:29:22;;;;;;;3.15;0.30;;;10.50;99.90;;;;;;6151665;23;20374;-91
2022/02/08 16:32:04;;;;;;;2.60;0.30;;;10.50;99.90;;;;;;6151663;23;20014;-88
2022/02/08 16:56:49;;;;;;;2.03;0.20;;;10.40;99.90;;;;;;6068293;23;20545;-90
2022/02/08 16:59:25;;;;;;;3.13;0.25;;;10.40;99.90;;;;;;6091825;23;20006;-88
2022/02/08 17:01:51;;;;;;;4.03;0.22;;;10.30;99.90;;;;;;6067849;23;20483;-86
2022/02/08 17:04:17;;;;;;;3.03;0.20;;;10.30;99.90;;;;;;6092534;23;20021;-87
2022/02/08 17:06:42;;;;;;;2.67;0.30;;;10.30;99.90;;;;;;6068775;23;20010;-88
2022/02/08 17:09:13;;;;;;;2.38;0.20;;;10.30;99.90;;;;;;6067647;23;20014;-90
2022/02/08 17:11:45;;;;;;;3.03;0.30;;;10.30;99.90;;;;;;6092133;23;20420;-86
2022/02/08 17:16:55;;;;;;;4.22;0.20;;;10.20;99.90;;;;;;6092031;23;20017;-86
2022/02/08 17:46:40;;;;;;;3.05;0.30;;;10.00;99.90;;;;;;6150849;23;20398;-84
2022/02/08 17:49:06;;;;;;;2.78;0.30;;;10.10;99.90;;;;;;6151206;23;20021;-84
2022/02/08 17:51:31;;;;;;;1.63;0.30;;;10.00;99.90;;;;;;6151735;23;20466;-85
2022/02/08 17:53:57;;;;;;;2.28;0.20;;;10.00;99.90;;;;;;6126291;23;20156;-84
2022/02/08 17:56:23;;;;;;;2.85;0.70;;;9.90;99.90;;;;;;6126905;23;20002;-84
2022/02/08 17:58:49;;;;;;;3.38;0.77;;;10.00;99.90;;;;;;6152528;23;20012;-83
2022/02/08 18:01:16;;;;;;;4.75;0.90;;;10.00;99.90;;;;;;6151943;23;20025;-83
2022/02/08 18:03:41;;;;;;;6.00;1.38;;;10.00;99.90;;;;;;6125598;23;20112;-84
2022/02/08 18:06:07;;;;;;;4.30;0.80;;;10.10;99.90;;;;;;6126751;23;20471;-83
2022/02/08 18:08:34;;;;;;;2.05;0.57;;;10.10;99.90;;;;;;6123365;23;20013;-83
2022/02/08 18:11:00;;;;;;;4.93;0.90;;;10.00;99.90;;;;;;6125946;23;20032;-83
2022/02/08 18:13:30;;;;;;;6.20;1.42;;;10.00;99.90;;;;;;6102105;23;20024;-82
2022/02/08 18:15:58;;;;;;;7.80;1.20;;;10.00;99.90;;;;;;6126445;23;20466;-83
2022/02/08 18:18:28;;;;;;;4.00;0.90;;;10.10;99.90;;;;;;6125272;23;20457;-83
2022/02/08 18:21:04;;;;;;;4.03;1.13;;;10.10;99.90;;;;;;6126217;23;20009;-83
2022/02/08 18:24:00;;;;;;;4.95;1.10;;;10.00;99.90;;;;;;6125792;23;20009;-84
2022/02/08 19:03:37;;;;;;;3.58;1.10;;;9.40;99.90;;;;;;6151203;23;20005;-83
2022/02/08 19:09:52;;;;;;;3.97;1.10;;;9.30;99.90;;;;;;6152876;23;20414;-84
2022/02/08 19:15:18;;;;;;;2.03;0.70;;;9.30;99.90;;;;;;6150000;23;20438;-83
2022/02/08 19:17:52;;;;;;;3.55;0.98;;;9.30;99.90;;;;;;6151203;23;20009;-84
2022/02/08 19:20:29;;;;;;;1.90;0.65;;;9.20;99.90;;;;;;6151774;23;20009;-84
2022/02/08 19:22:55;;;;;;;2.53;1.10;;;9.10;99.90;;;;;;6126331;23;20035;-83
2022/02/08 19:25:20;;;;;;;3.42;1.77;;;9.10;99.90;;;;;;6102426;23;20485;-85
2022/02/08 19:27:46;;;;;;;5.05;2.33;;;9.00;99.90;;;;;;6102197;23;20083;-84
2022/02/08 19:30:13;;;;;;;6.72;2.45;;;9.20;99.90;;;;;;6101638;23;20033;-84
2022/02/08 19:32:39;;;;;;;6.50;4.13;;;9.20;99.90;;;;;;6127242;23;20006;-85
2022/02/08 19:35:07;;;;;;;6.00;4.90;;;9.10;99.90;;;;;;6126462;23;20013;-85
2022/02/08 19:37:33;;;;;;;8.82;4.75;;;9.20;99.90;;;;;;6102489;23;20094;-85
2022/02/08 19:39:58;;;;;;;6.55;4.70;;;9.20;99.90;;;;;;6102588;23;20037;-84
2022/02/08 19:42:24;;;;;;;4.88;3.40;;;9.20;99.90;;;;;;6127099;23;20002;-83
2022/02/08 19:44:56;;;;;;;5.15;3.35;;;9.10;99.90;;;;;;6125825;23;20017;-84
2022/02/08 19:47:24;;;;;;;4.97;3.92;;;9.10;99.90;;;;;;6126526;23;20006;-83
2022/02/08 19:49:51;;;;;;;4.53;2.55;;;9.10;99.90;;;;;;6154577;23;20009;-86
2022/02/08 19:52:20;;;;;;;5.82;3.65;;;9.10;99.90;;;;;;6104042;23;20390;-83
2022/02/08 19:55:07;;;;;;;6.00;2.95;;;9.10;99.90;;;;;;6128382;23;20076;-82
2022/02/08 19:57:31;;;;;;;6.20;4.00;;;9.10;99.90;;;;;;6127881;23;20008;-83
2022/02/08 19:59:58;;;;;;;6.72;4.05;;;9.20;99.90;;;;;;6128318;23;20002;-83
2022/02/08 20:02:27;;;;;;;4.82;3.17;;;9.10;99.90;;;;;;6104271;23;20009;-85
2022/02/08 20:04:53;;;;;;;5.75;3.35;;;9.10;99.90;;;;;;6128389;23;20211;-83
2022/02/08 20:07:18;;;;;;;9.23;3.45;;;9.20;99.90;;;;;;6128299;23;20176;-84
2022/02/08 20:09:44;;;;;;;4.63;2.53;;;9.20;99.90;;;;;;6128520;23;20025;-83